createdAt,value
2017-10-11T00:00:41.617Z,14.60
2017-10-11T00:03:09.236Z,14.70
2017-10-11T00:05:45.451Z,14.60
2017-10-11T00:08:13.808Z,14.60
2017-10-11T00:10:41.391Z,14.60
2017-10-11T00:13:09.814Z,14.60
2017-10-11T00:15:44.047Z,14.60
2017-10-11T00:18:11.645Z,14.60
2017-10-11T00:20:39.252Z,14.60
2017-10-11T00:23:06.844Z,14.60
2017-10-11T00:25:34.442Z,14.60
2017-10-11T00:28:02.011Z,14.60
2017-10-11T00:30:30.385Z,14.60
2017-10-11T00:32:57.973Z,14.60
2017-10-11T00:35:26.323Z,14.60
2017-10-11T00:37:53.888Z,14.50
2017-10-11T00:40:21.483Z,14.50
2017-10-11T00:42:49.102Z,14.60
2017-10-11T00:45:16.715Z,14.50
2017-10-11T00:47:44.283Z,14.50
2017-10-11T00:50:11.873Z,14.50
2017-10-11T00:52:39.483Z,14.50
2017-10-11T00:55:07.058Z,14.50
2017-10-11T00:57:35.626Z,14.50
2017-10-11T01:00:03.208Z,14.50
2017-10-11T01:02:31.618Z,14.50
2017-10-11T01:04:59.194Z,14.50
2017-10-11T01:07:26.791Z,14.50
2017-10-11T01:09:54.402Z,14.50
2017-10-11T01:12:21.971Z,14.50
2017-10-11T01:14:49.659Z,14.50
2017-10-11T01:17:17.248Z,14.50
2017-10-11T01:19:44.862Z,14.50
2017-10-11T01:22:12.438Z,14.50
2017-10-11T01:24:40.031Z,14.40
2017-10-11T01:27:07.783Z,14.40
2017-10-11T01:29:35.384Z,14.40
2017-10-11T01:32:02.960Z,14.50
2017-10-11T01:34:30.784Z,14.50
2017-10-11T01:36:58.765Z,14.50
2017-10-11T01:39:26.932Z,14.50
2017-10-11T01:41:54.503Z,14.50
2017-10-11T01:44:22.112Z,14.50
2017-10-11T01:46:50.450Z,14.40
2017-10-11T01:49:18.038Z,14.40
2017-10-11T01:51:45.606Z,14.50
2017-10-11T01:54:13.237Z,14.40
2017-10-11T01:56:40.833Z,14.50
2017-10-11T01:59:09.245Z,14.50
2017-10-11T02:01:37.590Z,14.40
2017-10-11T02:04:05.733Z,14.50
2017-10-11T02:06:34.592Z,14.50
2017-10-11T02:09:02.961Z,14.50
2017-10-11T02:11:31.330Z,14.50
2017-10-11T02:13:58.913Z,14.50
2017-10-11T02:16:27.271Z,14.50
2017-10-11T02:18:54.878Z,14.50
2017-10-11T02:21:23.236Z,14.40
2017-10-11T02:23:50.790Z,14.40
2017-10-11T02:26:18.383Z,14.40
2017-10-11T02:28:46.709Z,14.40
2017-10-11T02:31:14.286Z,14.40
2017-10-11T02:33:41.863Z,14.40
2017-10-11T02:36:09.559Z,14.40
2017-10-11T02:38:37.980Z,14.40
2017-10-11T02:41:05.607Z,14.40
2017-10-11T02:43:35.604Z,14.40
2017-10-11T02:46:03.179Z,14.40
2017-10-11T02:48:31.004Z,14.40
2017-10-11T02:50:58.565Z,14.40
2017-10-11T02:53:26.170Z,14.40
2017-10-11T02:55:53.732Z,14.40
2017-10-11T02:58:21.337Z,14.40
2017-10-11T03:00:49.259Z,14.40
2017-10-11T03:03:17.325Z,14.40
2017-10-11T03:05:44.931Z,14.40
2017-10-11T03:08:13.261Z,14.40
2017-10-11T03:10:40.916Z,14.40
2017-10-11T03:13:08.543Z,14.40
2017-10-11T03:15:39.917Z,14.40
2017-10-11T03:18:07.645Z,14.40
2017-10-11T03:20:35.984Z,14.40
2017-10-11T03:23:03.606Z,14.40
2017-10-11T03:25:31.218Z,14.40
2017-10-11T03:27:58.791Z,14.40
2017-10-11T03:30:28.010Z,14.40
2017-10-11T03:32:55.579Z,14.30
2017-10-11T03:35:23.168Z,14.30
2017-10-11T03:37:51.517Z,14.30
2017-10-11T03:40:19.344Z,14.30
2017-10-11T03:42:47.405Z,14.30
2017-10-11T03:45:15.089Z,14.30
2017-10-11T03:47:42.810Z,14.30
2017-10-11T03:50:10.529Z,14.30
2017-10-11T03:52:38.112Z,14.30
2017-10-11T03:55:05.739Z,14.30
2017-10-11T03:57:33.321Z,14.30
2017-10-11T04:00:00.945Z,14.30
2017-10-11T04:02:29.279Z,14.30
2017-10-11T04:04:56.857Z,14.30
2017-10-11T04:07:24.450Z,14.30
2017-10-11T04:09:52.772Z,14.30
2017-10-11T04:12:20.367Z,14.30
2017-10-11T04:14:47.958Z,14.30
2017-10-11T04:17:16.593Z,14.20
2017-10-11T04:19:44.183Z,14.20
2017-10-11T04:22:11.933Z,14.20
2017-10-11T04:24:40.145Z,14.20
2017-10-11T04:27:07.709Z,14.20
2017-10-11T04:29:37.799Z,14.20
2017-10-11T04:32:05.391Z,14.20
2017-10-11T04:34:33.716Z,14.20
2017-10-11T04:37:01.321Z,14.20
2017-10-11T04:39:28.905Z,14.20
2017-10-11T04:41:56.516Z,14.20
2017-10-11T04:44:24.084Z,14.10
2017-10-11T04:46:51.691Z,14.10
2017-10-11T04:49:19.253Z,14.20
2017-10-11T04:51:46.944Z,14.10
2017-10-11T04:54:15.312Z,14.10
2017-10-11T04:56:44.457Z,14.10
2017-10-11T04:59:12.136Z,14.10
2017-10-11T05:01:39.707Z,14.10
2017-10-11T05:04:07.366Z,14.10
2017-10-11T05:06:34.969Z,14.20
2017-10-11T05:09:02.558Z,14.10
2017-10-11T05:11:30.905Z,14.10
2017-10-11T05:13:59.990Z,14.20
2017-10-11T05:16:27.663Z,14.20
2017-10-11T05:18:55.220Z,14.20
2017-10-11T05:21:22.777Z,14.20
2017-10-11T05:23:50.492Z,14.20
2017-10-11T05:26:18.853Z,14.30
2017-10-11T05:28:48.020Z,14.20
2017-10-11T05:31:15.694Z,14.20
2017-10-11T05:33:43.315Z,14.20
2017-10-11T05:36:11.703Z,14.20
2017-10-11T05:38:39.516Z,14.20
2017-10-11T05:41:07.111Z,14.20
2017-10-11T05:43:35.459Z,14.20
2017-10-11T05:46:03.069Z,14.20
2017-10-11T05:48:31.425Z,14.30
2017-10-11T05:50:59.164Z,14.30
2017-10-11T05:53:26.749Z,14.30
2017-10-11T05:55:54.318Z,14.20
2017-10-11T05:58:21.959Z,14.20
2017-10-11T06:00:49.554Z,14.20
2017-10-11T06:03:17.911Z,14.30
2017-10-11T06:05:45.464Z,14.30
2017-10-11T06:08:13.074Z,14.30
2017-10-11T06:10:40.665Z,14.30
2017-10-11T06:13:08.260Z,14.30
2017-10-11T06:15:35.841Z,14.30
2017-10-11T06:18:03.447Z,14.40
2017-10-11T06:20:31.779Z,14.40
2017-10-11T06:22:59.657Z,14.40
2017-10-11T06:25:27.247Z,14.40
2017-10-11T06:27:55.588Z,14.40
2017-10-11T06:30:23.196Z,14.40
2017-10-11T06:32:50.761Z,14.40
2017-10-11T06:35:18.366Z,14.40
2017-10-11T06:37:45.938Z,14.40
2017-10-11T06:40:13.519Z,14.50
2017-10-11T06:42:41.115Z,14.50
2017-10-11T06:45:08.671Z,14.50
2017-10-11T06:47:36.262Z,14.50
2017-10-11T06:50:04.595Z,14.50
2017-10-11T06:52:32.173Z,14.50
2017-10-11T06:54:59.905Z,14.60
2017-10-11T06:57:27.631Z,14.50
2017-10-11T06:59:55.967Z,14.60
2017-10-11T07:02:23.629Z,14.60
2017-10-11T07:04:51.241Z,14.60
2017-10-11T07:07:19.978Z,14.60
2017-10-11T07:09:47.896Z,14.70
2017-10-11T07:12:15.694Z,14.70
2017-10-11T07:14:43.313Z,14.70
2017-10-11T07:17:10.895Z,14.80
2017-10-11T07:19:38.516Z,14.80
2017-10-11T07:22:06.105Z,14.80
2017-10-11T07:24:33.698Z,14.80
2017-10-11T07:27:02.049Z,14.90
2017-10-11T07:29:29.666Z,14.90
2017-10-11T07:31:57.234Z,14.90
2017-10-11T07:34:24.822Z,14.90
2017-10-11T07:36:52.420Z,15.00
2017-10-11T07:39:20.046Z,15.00
2017-10-11T07:41:47.799Z,15.00
2017-10-11T07:44:15.520Z,15.00
2017-10-11T07:46:44.623Z,15.10
2017-10-11T07:49:12.266Z,15.10
2017-10-11T07:51:40.231Z,15.10
2017-10-11T07:54:07.801Z,15.10
2017-10-11T07:56:36.162Z,15.10
2017-10-11T07:59:03.741Z,15.10
2017-10-11T08:01:31.310Z,15.10
2017-10-11T08:03:58.921Z,15.10
2017-10-11T08:06:27.256Z,15.10
2017-10-11T08:08:54.870Z,15.10
2017-10-11T08:11:23.203Z,15.10
2017-10-11T08:13:50.809Z,15.10
2017-10-11T08:16:19.185Z,15.10
2017-10-11T08:18:46.811Z,15.00
2017-10-11T08:21:14.397Z,15.00
2017-10-11T08:23:42.122Z,15.00
2017-10-11T08:26:09.722Z,15.00
2017-10-11T08:28:37.334Z,15.10
2017-10-11T08:31:04.924Z,15.10
2017-10-11T08:33:32.519Z,15.10
2017-10-11T08:36:00.101Z,15.10
2017-10-11T08:38:28.482Z,15.20
2017-10-11T08:40:56.805Z,15.20
2017-10-11T08:43:24.534Z,15.20
2017-10-11T08:45:52.115Z,15.30
2017-10-11T08:48:20.503Z,15.20
2017-10-11T08:50:54.967Z,15.20
2017-10-11T08:53:22.583Z,15.20
2017-10-11T08:55:51.143Z,15.30
2017-10-11T08:58:18.991Z,15.30
2017-10-11T09:00:46.891Z,15.30
2017-10-11T09:03:15.250Z,15.30
2017-10-11T09:05:42.884Z,15.30
2017-10-11T09:08:10.565Z,15.50
2017-10-11T09:10:38.134Z,15.40
2017-10-11T09:13:05.898Z,15.40
2017-10-11T09:15:33.475Z,15.30
2017-10-11T09:18:01.090Z,15.30
2017-10-11T09:20:28.674Z,15.30
2017-10-11T09:22:56.261Z,15.20
2017-10-11T09:25:23.876Z,15.30
2017-10-11T09:27:52.375Z,15.40
2017-10-11T09:30:20.019Z,15.40
2017-10-11T09:32:48.386Z,15.40
2017-10-11T09:35:16.003Z,15.40
2017-10-11T09:37:43.605Z,15.50
2017-10-11T09:40:11.509Z,15.50
2017-10-11T09:42:39.861Z,15.50
2017-10-11T09:45:07.439Z,15.50
2017-10-11T09:47:35.035Z,15.50
2017-10-11T09:50:02.616Z,15.50
2017-10-11T09:52:30.205Z,15.40
2017-10-11T09:54:57.764Z,15.40
2017-10-11T09:57:25.359Z,15.30
2017-10-11T09:59:53.132Z,15.30
2017-10-11T10:02:20.782Z,15.40
2017-10-11T10:04:49.527Z,15.40
2017-10-11T10:07:17.404Z,15.40
2017-10-11T10:09:45.005Z,15.50
2017-10-11T10:12:12.631Z,15.60
2017-10-11T10:14:40.252Z,15.60
2017-10-11T10:17:08.577Z,15.70
2017-10-11T10:19:36.173Z,15.70
2017-10-11T10:22:03.729Z,15.70
2017-10-11T10:24:31.289Z,15.70
2017-10-11T10:26:58.879Z,15.90
2017-10-11T10:29:27.237Z,16.10
2017-10-11T10:31:54.840Z,16.10
2017-10-11T10:34:23.179Z,16.00
2017-10-11T10:36:50.754Z,16.00
2017-10-11T10:39:18.321Z,15.90
2017-10-11T10:41:46.063Z,15.80
2017-10-11T10:44:13.640Z,15.80
2017-10-11T10:46:42.843Z,15.70
2017-10-11T10:49:10.490Z,15.70
2017-10-11T10:51:38.055Z,15.60
2017-10-11T10:54:05.654Z,15.60
2017-10-11T10:56:33.233Z,15.50
2017-10-11T10:59:01.592Z,15.50
2017-10-11T11:01:29.232Z,15.50
2017-10-11T11:03:56.817Z,15.50
2017-10-11T11:06:24.423Z,15.50
2017-10-11T11:08:52.756Z,15.50
2017-10-11T11:11:20.316Z,15.50
2017-10-11T11:13:47.897Z,15.50
2017-10-11T11:16:15.490Z,15.40
2017-10-11T11:18:44.338Z,15.40
2017-10-11T11:21:12.852Z,15.40
2017-10-11T11:23:40.445Z,15.40
2017-10-11T11:26:08.779Z,15.40
2017-10-11T11:28:36.424Z,15.40
2017-10-11T11:31:04.005Z,15.40
2017-10-11T11:33:31.647Z,15.40
2017-10-11T11:35:59.255Z,15.30
2017-10-11T11:38:27.595Z,15.30
2017-10-11T11:40:55.281Z,15.30
2017-10-11T11:43:22.883Z,15.30
2017-10-11T11:45:50.704Z,15.30
2017-10-11T11:48:18.302Z,15.30
2017-10-11T11:50:47.394Z,15.30
2017-10-11T11:53:15.740Z,15.30
2017-10-11T11:55:43.330Z,15.30
2017-10-11T11:58:10.985Z,15.30
2017-10-11T12:00:38.639Z,15.30
2017-10-11T12:03:06.218Z,15.30
2017-10-11T12:05:33.823Z,15.30
2017-10-11T12:08:02.162Z,15.30
2017-10-11T12:10:29.763Z,15.30
2017-10-11T12:12:57.334Z,15.40
2017-10-11T12:15:25.705Z,15.40
2017-10-11T12:17:54.082Z,15.40
2017-10-11T12:20:21.706Z,15.40
2017-10-11T12:22:49.333Z,15.40
2017-10-11T12:25:17.696Z,15.30
2017-10-11T12:27:45.328Z,15.30
2017-10-11T12:30:13.028Z,15.30
2017-10-11T12:32:40.810Z,15.60
2017-10-11T12:35:09.205Z,16.00
2017-10-11T12:37:37.656Z,16.10
2017-10-11T12:40:05.533Z,16.10
2017-10-11T12:42:33.934Z,16.50
2017-10-11T12:45:02.278Z,16.50
2017-10-11T12:47:30.596Z,16.50
2017-10-11T12:49:58.970Z,16.70
2017-10-11T12:52:26.692Z,16.60
2017-10-11T12:54:54.302Z,16.60
2017-10-11T12:57:21.898Z,16.50
2017-10-11T12:59:49.587Z,16.40
2017-10-11T13:02:17.177Z,16.30
2017-10-11T13:04:44.915Z,16.20
2017-10-11T13:07:12.507Z,16.00
2017-10-11T13:09:40.110Z,15.90
2017-10-11T13:12:08.683Z,15.70
2017-10-11T13:14:37.043Z,15.70
2017-10-11T13:17:04.611Z,15.70
2017-10-11T13:19:32.225Z,15.70
2017-10-11T13:21:59.935Z,15.60
2017-10-11T13:24:27.505Z,15.60
2017-10-11T13:26:55.109Z,15.50
2017-10-11T13:29:22.665Z,15.50
2017-10-11T13:31:51.053Z,15.50
2017-10-11T13:34:19.394Z,15.50
2017-10-11T13:36:46.978Z,15.50
2017-10-11T13:39:15.351Z,15.40
2017-10-11T13:41:42.963Z,15.40
2017-10-11T13:44:10.585Z,15.40
2017-10-11T13:46:38.161Z,15.40
2017-10-11T13:49:06.495Z,15.30
2017-10-11T13:51:34.100Z,15.30
2017-10-11T13:54:01.694Z,15.40
2017-10-11T13:56:29.301Z,15.40
2017-10-11T13:58:56.878Z,15.40
2017-10-11T14:01:25.262Z,15.40
2017-10-11T14:03:52.830Z,15.40
2017-10-11T14:06:21.181Z,15.50
2017-10-11T14:08:48.844Z,15.40
2017-10-11T14:11:16.426Z,15.50
2017-10-11T14:13:44.892Z,15.50
2017-10-11T14:16:12.467Z,15.40
2017-10-11T14:18:40.075Z,15.50
2017-10-11T14:21:08.398Z,15.40
2017-10-11T14:23:35.956Z,15.40
2017-10-11T14:26:03.561Z,15.40
2017-10-11T14:28:31.133Z,15.40
2017-10-11T14:30:59.535Z,15.40
2017-10-11T14:33:27.898Z,15.40
2017-10-11T14:35:55.471Z,15.40
2017-10-11T14:38:23.813Z,15.30
2017-10-11T14:40:51.491Z,15.30
2017-10-11T14:43:19.143Z,15.30
2017-10-11T14:45:46.763Z,15.30
2017-10-11T14:48:15.154Z,15.30
2017-10-11T14:50:42.783Z,15.30
2017-10-11T14:53:10.389Z,15.30
2017-10-11T14:55:37.978Z,15.30
2017-10-11T14:58:05.631Z,15.30
2017-10-11T15:00:33.234Z,15.30
2017-10-11T15:03:00.789Z,15.20
2017-10-11T15:05:28.360Z,15.30
2017-10-11T15:07:55.986Z,15.30
2017-10-11T15:10:23.631Z,15.20
2017-10-11T15:12:52.009Z,15.20
2017-10-11T15:15:20.342Z,15.20
2017-10-11T15:17:47.968Z,15.10
2017-10-11T15:20:15.845Z,15.20
2017-10-11T15:22:44.864Z,15.20
2017-10-11T15:25:12.483Z,15.20
2017-10-11T15:27:40.856Z,15.20
2017-10-11T15:30:09.320Z,15.10
2017-10-11T15:32:36.887Z,15.10
2017-10-11T15:35:05.241Z,15.10
2017-10-11T15:37:32.865Z,15.10
2017-10-11T15:40:01.214Z,15.20
2017-10-11T15:42:28.782Z,15.10
2017-10-11T15:44:56.372Z,15.10
2017-10-11T15:47:24.724Z,15.10
2017-10-11T15:49:52.321Z,15.10
2017-10-11T15:52:20.957Z,15.40
2017-10-11T15:54:48.632Z,15.40
2017-10-11T15:57:16.216Z,15.40
2017-10-11T15:59:44.753Z,15.30
2017-10-11T16:02:12.533Z,15.30
2017-10-11T16:04:40.142Z,15.20
2017-10-11T16:07:07.717Z,15.20
2017-10-11T16:09:36.093Z,15.10
2017-10-11T16:12:04.453Z,15.10
2017-10-11T16:14:32.029Z,15.10
2017-10-11T16:16:59.646Z,15.10
2017-10-11T16:19:27.343Z,15.10
2017-10-11T16:21:54.980Z,15.10
2017-10-11T16:24:22.607Z,15.10
2017-10-11T16:26:50.980Z,15.00
2017-10-11T16:29:19.432Z,15.00
2017-10-11T16:31:47.073Z,15.00
2017-10-11T16:34:14.850Z,15.00
2017-10-11T16:36:42.593Z,15.00
2017-10-11T16:39:10.304Z,15.00
2017-10-11T16:41:37.896Z,15.00
2017-10-11T16:44:05.455Z,15.00
2017-10-11T16:46:33.066Z,15.00
2017-10-11T16:49:00.653Z,15.00
2017-10-11T16:51:28.274Z,15.00
2017-10-11T16:53:56.635Z,15.00
2017-10-11T16:56:24.219Z,14.90
2017-10-11T16:58:52.602Z,14.90
2017-10-11T17:01:20.974Z,14.90
2017-10-11T17:03:49.399Z,15.00
2017-10-11T17:06:17.010Z,15.00
2017-10-11T17:08:45.627Z,14.90
2017-10-11T17:11:14.425Z,14.90
2017-10-11T17:13:41.995Z,14.90
2017-10-11T17:16:09.556Z,14.90
2017-10-11T17:18:37.147Z,14.90
2017-10-11T17:21:04.735Z,14.90
2017-10-11T17:23:32.357Z,14.90
2017-10-11T17:25:59.928Z,14.90
2017-10-11T17:28:27.493Z,14.90
2017-10-11T17:30:55.105Z,14.90
2017-10-11T17:33:22.720Z,14.90
2017-10-11T17:35:50.322Z,14.90
2017-10-11T17:38:17.883Z,14.90
2017-10-11T17:40:46.340Z,14.90
2017-10-11T17:43:14.109Z,14.90
2017-10-11T17:45:41.712Z,15.00
2017-10-11T17:48:09.320Z,14.90
2017-10-11T17:50:36.916Z,15.00
2017-10-11T17:53:05.383Z,15.00
2017-10-11T17:55:32.982Z,14.90
2017-10-11T17:58:00.548Z,15.00
2017-10-11T18:00:28.914Z,15.00
2017-10-11T18:02:56.483Z,14.90
2017-10-11T18:05:24.067Z,15.00
2017-10-11T18:07:51.790Z,14.90
2017-10-11T18:10:19.363Z,15.00
2017-10-11T18:12:47.017Z,15.10
2017-10-11T18:15:15.129Z,15.10
2017-10-11T18:17:42.695Z,15.10
2017-10-11T18:20:11.070Z,15.10
2017-10-11T18:22:39.028Z,15.10
2017-10-11T18:25:07.431Z,15.20
2017-10-11T18:27:35.060Z,15.10
2017-10-11T18:30:02.673Z,15.20
2017-10-11T18:32:30.245Z,15.30
2017-10-11T18:34:58.622Z,15.30
2017-10-11T18:37:26.969Z,15.30
2017-10-11T18:39:54.585Z,15.30
2017-10-11T18:42:23.207Z,15.30
2017-10-11T18:44:50.973Z,15.30
2017-10-11T18:47:18.850Z,15.30
2017-10-11T18:49:46.441Z,15.30
2017-10-11T18:52:14.028Z,15.30
2017-10-11T18:54:42.468Z,15.30
2017-10-11T18:57:10.224Z,15.30
2017-10-11T18:59:37.854Z,15.30
2017-10-11T19:02:06.381Z,15.40
2017-10-11T19:04:33.996Z,15.40
2017-10-11T19:07:02.337Z,15.40
2017-10-11T19:09:30.191Z,15.30
2017-10-11T19:11:57.963Z,15.40
2017-10-11T19:14:26.136Z,15.40
2017-10-11T19:16:53.816Z,15.40
2017-10-11T19:19:21.436Z,15.40
2017-10-11T19:21:50.056Z,15.50
2017-10-11T19:24:17.830Z,15.40
2017-10-11T19:26:45.700Z,15.50
2017-10-11T19:29:13.467Z,15.50
2017-10-11T19:31:41.055Z,15.50
2017-10-11T19:34:08.709Z,15.40
2017-10-11T19:36:36.414Z,15.40
2017-10-11T19:39:04.944Z,15.40
2017-10-11T19:41:32.614Z,15.30
2017-10-11T19:44:00.213Z,15.30
2017-10-11T19:46:27.812Z,15.30
2017-10-11T19:48:55.482Z,15.20
2017-10-11T19:51:23.279Z,15.20
2017-10-11T19:53:50.880Z,15.20
2017-10-11T19:56:19.282Z,15.20
2017-10-11T19:58:47.687Z,15.10
2017-10-11T20:01:15.476Z,15.10
2017-10-11T20:03:43.058Z,15.10
2017-10-11T20:06:10.632Z,15.10
2017-10-11T20:08:38.268Z,15.00
2017-10-11T20:11:05.864Z,14.90
2017-10-11T20:13:33.467Z,14.90
2017-10-11T20:16:01.093Z,14.90
2017-10-11T20:18:28.744Z,14.80
2017-10-11T20:20:56.387Z,14.80
2017-10-11T20:23:24.298Z,14.80
2017-10-11T20:25:52.140Z,14.80
2017-10-11T20:28:19.722Z,14.80
2017-10-11T20:30:47.294Z,14.80
2017-10-11T20:33:14.887Z,14.80
2017-10-11T20:35:42.474Z,14.80
2017-10-11T20:38:10.089Z,14.80
2017-10-11T20:40:37.644Z,14.90
2017-10-11T20:43:05.206Z,14.80
2017-10-11T20:45:32.801Z,14.90
2017-10-11T20:48:01.806Z,14.90
2017-10-11T20:50:30.225Z,14.90
2017-10-11T20:52:58.092Z,14.90
2017-10-11T20:55:25.700Z,15.00
2017-10-11T20:57:53.300Z,15.00
2017-10-11T21:00:21.822Z,15.00
2017-10-11T21:02:49.515Z,15.00
2017-10-11T21:05:18.071Z,15.00
2017-10-11T21:07:45.654Z,15.10
2017-10-11T21:10:13.247Z,15.10
2017-10-11T21:12:40.870Z,15.10
2017-10-11T21:15:08.479Z,15.10
2017-10-11T21:17:36.061Z,15.10
2017-10-11T21:20:04.438Z,15.20
2017-10-11T21:22:32.930Z,15.10
2017-10-11T21:25:00.542Z,15.10
2017-10-11T21:27:28.184Z,15.10
2017-10-11T21:29:55.785Z,15.20
2017-10-11T21:32:24.141Z,15.20
2017-10-11T21:34:51.744Z,15.20
2017-10-11T21:37:20.165Z,15.20
2017-10-11T21:39:47.794Z,15.20
2017-10-11T21:42:15.431Z,15.20
2017-10-11T21:44:43.083Z,15.20
2017-10-11T21:47:10.754Z,15.30
2017-10-11T21:49:38.339Z,15.30
2017-10-11T21:52:05.924Z,15.30
2017-10-11T21:54:34.240Z,15.30
2017-10-11T21:57:01.949Z,15.20
2017-10-11T21:59:30.113Z,15.30
2017-10-11T22:01:58.000Z,15.30
2017-10-11T22:04:26.412Z,15.30
2017-10-11T22:06:54.062Z,15.30
2017-10-11T22:09:21.641Z,15.30
2017-10-11T22:11:50.099Z,15.30
2017-10-11T22:14:17.744Z,15.30
2017-10-11T22:16:45.318Z,15.30
2017-10-11T22:19:12.887Z,15.30
2017-10-11T22:21:40.955Z,15.30
2017-10-11T22:24:08.712Z,15.30
2017-10-11T22:26:36.321Z,15.40
2017-10-11T22:29:04.655Z,15.50
2017-10-11T22:31:32.274Z,15.40
2017-10-11T22:34:00.499Z,15.40
2017-10-11T22:36:28.212Z,15.50
2017-10-11T22:38:56.599Z,15.40
2017-10-11T22:41:24.944Z,15.40
2017-10-11T22:43:52.558Z,15.40
2017-10-11T22:46:20.163Z,15.40
2017-10-11T22:48:47.720Z,15.40
2017-10-11T22:51:15.323Z,15.40
2017-10-11T22:53:42.894Z,15.40
2017-10-11T22:56:10.484Z,15.40
2017-10-11T22:58:38.176Z,15.40
2017-10-11T23:01:05.748Z,15.40
2017-10-11T23:03:34.157Z,15.40
2017-10-11T23:06:01.738Z,15.40
2017-10-11T23:08:29.357Z,15.40
2017-10-11T23:10:56.969Z,15.40
2017-10-11T23:13:24.906Z,15.40
2017-10-11T23:15:52.625Z,15.40
2017-10-11T23:18:21.018Z,15.40
2017-10-11T23:20:48.618Z,15.40
2017-10-11T23:23:16.203Z,15.40
2017-10-11T23:25:43.775Z,15.40
2017-10-11T23:28:11.382Z,15.40
2017-10-11T23:30:38.951Z,15.50
2017-10-11T23:33:06.603Z,15.50
2017-10-11T23:35:34.191Z,15.40
2017-10-11T23:38:01.851Z,15.50
2017-10-11T23:40:29.478Z,15.50
2017-10-11T23:42:57.169Z,15.50
2017-10-11T23:45:25.007Z,15.50
2017-10-11T23:47:52.604Z,15.50
2017-10-11T23:50:20.226Z,15.40
2017-10-11T23:52:48.577Z,15.50
2017-10-11T23:55:16.155Z,15.50
2017-10-11T23:57:43.765Z,15.50
